createdAt,value
2019-03-10T00:00:32.027Z,5.30
2019-03-10T00:01:31.986Z,5.22
2019-03-10T00:02:31.973Z,5.30
2019-03-10T00:03:31.978Z,5.35
2019-03-10T00:04:31.974Z,5.35
2019-03-10T00:05:31.964Z,5.28
2019-03-10T00:06:31.953Z,5.24
2019-03-10T00:07:31.921Z,5.31
2019-03-10T00:08:31.904Z,5.22
2019-03-10T00:09:31.898Z,5.21
2019-03-10T00:10:32.394Z,5.22
2019-03-10T00:11:31.877Z,5.28
2019-03-10T00:12:31.867Z,5.18
2019-03-10T00:13:31.856Z,5.17
2019-03-10T00:14:31.841Z,5.21
2019-03-10T00:15:31.899Z,5.25
2019-03-10T00:16:31.827Z,5.13
2019-03-10T00:17:31.831Z,5.25
2019-03-10T00:18:31.834Z,5.13
2019-03-10T00:19:31.786Z,5.10
2019-03-10T00:20:31.788Z,5.09
2019-03-10T00:21:31.786Z,5.15
2019-03-10T00:22:31.758Z,5.09
2019-03-10T00:23:31.745Z,5.18
2019-03-10T00:24:31.726Z,5.10
2019-03-10T00:25:31.713Z,5.10
2019-03-10T00:26:31.788Z,5.10
2019-03-10T00:27:31.698Z,5.15
2019-03-10T00:28:31.685Z,5.17
2019-03-10T00:29:31.708Z,5.06
2019-03-10T00:30:31.701Z,5.15
2019-03-10T00:31:31.742Z,5.20
2019-03-10T00:32:31.645Z,5.10
2019-03-10T00:33:31.666Z,5.15
2019-03-10T00:34:31.645Z,5.15
2019-03-10T00:35:31.703Z,5.13
2019-03-10T00:36:32.418Z,5.10
2019-03-10T00:37:31.604Z,5.10
2019-03-10T00:38:31.627Z,5.07
2019-03-10T00:39:31.708Z,5.07
2019-03-10T00:40:31.641Z,5.13
2019-03-10T00:41:31.562Z,5.15
2019-03-10T00:42:31.931Z,5.17
2019-03-10T00:43:32.460Z,5.07
2019-03-10T00:44:31.537Z,5.09
2019-03-10T00:45:31.531Z,5.12
2019-03-10T00:46:31.495Z,5.10
2019-03-10T00:47:31.494Z,5.10
2019-03-10T00:48:31.472Z,5.10
2019-03-10T00:49:31.448Z,5.15
2019-03-10T00:50:31.465Z,5.09
2019-03-10T00:51:31.443Z,5.09
2019-03-10T00:52:31.449Z,5.12
2019-03-10T00:53:31.412Z,5.07
2019-03-10T00:54:31.410Z,5.10
2019-03-10T00:55:31.381Z,5.17
2019-03-10T00:56:31.377Z,5.10
2019-03-10T00:57:31.387Z,5.15
2019-03-10T00:58:31.346Z,5.10
2019-03-10T00:59:31.340Z,5.06
2019-03-10T01:00:31.322Z,5.09
2019-03-10T01:01:31.322Z,5.07
2019-03-10T01:02:31.330Z,5.20
2019-03-10T01:03:31.301Z,5.10
2019-03-10T01:04:31.277Z,5.18
2019-03-10T01:05:31.267Z,5.07
2019-03-10T01:06:31.269Z,5.06
2019-03-10T01:07:31.277Z,5.07
2019-03-10T01:08:31.262Z,5.12
2019-03-10T01:09:31.240Z,5.03
2019-03-10T01:10:31.217Z,5.04
2019-03-10T01:11:31.206Z,5.04
2019-03-10T01:12:31.221Z,5.03
2019-03-10T01:13:31.200Z,5.15
2019-03-10T01:14:31.168Z,5.07
2019-03-10T01:15:31.156Z,5.06
2019-03-10T01:16:31.153Z,5.07
2019-03-10T01:17:31.133Z,5.07
2019-03-10T01:18:31.155Z,5.15
2019-03-10T01:19:31.148Z,5.07
2019-03-10T01:20:31.106Z,5.04
2019-03-10T01:21:31.117Z,5.07
2019-03-10T01:22:31.087Z,5.06
2019-03-10T01:23:31.085Z,5.06
2019-03-10T01:24:31.066Z,5.09
2019-03-10T01:25:31.046Z,5.04
2019-03-10T01:26:31.048Z,5.06
2019-03-10T01:27:31.026Z,5.03
2019-03-10T01:28:31.096Z,5.06
2019-03-10T01:29:31.008Z,5.03
2019-03-10T01:30:31.006Z,5.04
2019-03-10T01:31:30.987Z,5.06
2019-03-10T01:32:30.968Z,4.96
2019-03-10T01:33:31.430Z,5.00
2019-03-10T01:34:30.941Z,4.97
2019-03-10T01:35:30.942Z,4.92
2019-03-10T01:36:30.946Z,4.94
2019-03-10T01:37:30.910Z,4.91
2019-03-10T01:38:30.925Z,5.00
2019-03-10T01:39:30.886Z,5.03
2019-03-10T01:40:30.914Z,4.97
2019-03-10T01:41:31.389Z,4.97
2019-03-10T01:42:30.858Z,4.97
2019-03-10T01:43:30.838Z,4.88
2019-03-10T01:44:30.870Z,4.91
2019-03-10T01:45:30.829Z,4.88
2019-03-10T01:46:30.829Z,4.78
2019-03-10T01:47:30.810Z,4.75
2019-03-10T01:48:30.786Z,4.85
2019-03-10T01:49:30.804Z,4.85
2019-03-10T01:50:30.769Z,4.84
2019-03-10T01:51:30.755Z,4.75
2019-03-10T01:52:30.748Z,4.75
2019-03-10T01:53:30.733Z,4.75
2019-03-10T01:54:30.769Z,4.84
2019-03-10T01:55:30.700Z,4.70
2019-03-10T01:56:30.694Z,4.70
2019-03-10T01:57:30.683Z,4.73
2019-03-10T01:58:30.682Z,4.78
2019-03-10T01:59:30.694Z,4.75
2019-03-10T02:00:30.649Z,4.88
2019-03-10T02:01:30.655Z,4.75
2019-03-10T02:02:30.635Z,4.78
2019-03-10T02:03:30.633Z,4.78
2019-03-10T02:04:30.630Z,4.80
2019-03-10T02:05:30.630Z,4.77
2019-03-10T02:06:30.581Z,4.73
2019-03-10T02:07:30.579Z,4.72
2019-03-10T02:08:30.556Z,4.72
2019-03-10T02:09:30.561Z,4.73
2019-03-10T02:10:30.571Z,4.72
2019-03-10T02:11:30.533Z,4.72
2019-03-10T02:12:30.520Z,4.80
2019-03-10T02:13:30.509Z,4.75
2019-03-10T02:14:30.498Z,4.80
2019-03-10T02:15:30.503Z,4.78
2019-03-10T02:16:30.471Z,4.72
2019-03-10T02:17:30.456Z,4.73
2019-03-10T02:18:30.445Z,4.80
2019-03-10T02:19:30.436Z,4.66
2019-03-10T02:20:30.447Z,4.66
2019-03-10T02:21:30.437Z,4.73
2019-03-10T02:22:30.407Z,4.75
2019-03-10T02:23:30.385Z,4.77
2019-03-10T02:24:30.381Z,4.80
2019-03-10T02:25:30.398Z,4.75
2019-03-10T02:26:30.367Z,4.63
2019-03-10T02:27:30.347Z,4.66
2019-03-10T02:28:30.343Z,4.63
2019-03-10T02:29:30.322Z,4.67
2019-03-10T02:30:30.403Z,4.73
2019-03-10T02:31:30.304Z,4.65
2019-03-10T02:32:30.306Z,4.60
2019-03-10T02:33:30.303Z,4.70
2019-03-10T02:34:30.274Z,4.67
2019-03-10T02:35:30.281Z,4.75
2019-03-10T02:36:30.257Z,4.70
2019-03-10T02:37:30.237Z,4.69
2019-03-10T02:38:30.241Z,4.67
2019-03-10T02:39:30.216Z,4.65
2019-03-10T02:40:30.221Z,4.73
2019-03-10T02:41:30.254Z,4.75
2019-03-10T02:42:30.189Z,4.72
2019-03-10T02:43:30.208Z,4.70
2019-03-10T02:44:30.167Z,4.73
2019-03-10T02:45:30.177Z,4.66
2019-03-10T02:46:30.132Z,4.77
2019-03-10T02:47:30.130Z,4.70
2019-03-10T02:48:30.115Z,4.78
2019-03-10T02:49:30.108Z,4.69
2019-03-10T02:50:30.120Z,4.73
2019-03-10T02:51:30.075Z,4.66
2019-03-10T02:52:30.066Z,4.72
2019-03-10T02:53:30.114Z,4.70
2019-03-10T02:54:30.046Z,4.70
2019-03-10T02:55:30.060Z,4.65
2019-03-10T02:56:30.028Z,4.72
2019-03-10T02:57:30.009Z,4.58
2019-03-10T02:58:30.008Z,4.69
2019-03-10T02:59:30.010Z,4.65
2019-03-10T03:00:29.998Z,4.50
2019-03-10T03:01:29.978Z,4.50
2019-03-10T03:02:29.957Z,4.52
2019-03-10T03:03:29.945Z,4.50
2019-03-10T03:04:29.953Z,4.40
2019-03-10T03:05:29.944Z,4.41
2019-03-10T03:06:29.927Z,4.32
2019-03-10T03:07:29.916Z,4.32
2019-03-10T03:08:29.900Z,4.30
2019-03-10T03:09:29.885Z,4.30
2019-03-10T03:10:29.882Z,4.32
2019-03-10T03:11:29.858Z,4.26
2019-03-10T03:12:29.847Z,4.33
2019-03-10T03:13:29.842Z,4.33
2019-03-10T03:14:29.820Z,4.30
2019-03-10T03:15:29.922Z,4.32
2019-03-10T03:16:29.816Z,4.20
2019-03-10T03:17:29.792Z,4.24
2019-03-10T03:18:29.772Z,4.22
2019-03-10T03:19:29.772Z,4.22
2019-03-10T03:20:29.788Z,4.15
2019-03-10T03:21:42.428Z,4.16
2019-03-10T03:22:30.738Z,4.24
2019-03-10T03:23:29.737Z,4.16
2019-03-10T03:24:29.722Z,4.12
2019-03-10T03:25:29.713Z,4.15
2019-03-10T03:26:29.716Z,4.08
2019-03-10T03:27:29.679Z,4.12
2019-03-10T03:28:29.665Z,4.12
2019-03-10T03:29:29.669Z,4.05
2019-03-10T03:30:29.641Z,4.12
2019-03-10T03:31:29.655Z,4.12
2019-03-10T03:32:29.628Z,4.08
2019-03-10T03:33:29.679Z,4.12
2019-03-10T03:34:29.619Z,4.16
2019-03-10T03:35:29.595Z,4.18
2019-03-10T03:36:29.640Z,4.18
2019-03-10T03:37:29.562Z,4.15
2019-03-10T03:38:29.553Z,4.12
2019-03-10T03:39:29.538Z,4.12
2019-03-10T03:40:29.541Z,4.18
2019-03-10T03:41:29.551Z,4.12
2019-03-10T03:42:29.522Z,4.14
2019-03-10T03:43:29.495Z,4.16
2019-03-10T03:44:29.496Z,4.04
2019-03-10T03:45:29.478Z,4.12
2019-03-10T03:46:29.483Z,4.04
2019-03-10T03:47:29.455Z,4.06
2019-03-10T03:48:29.437Z,4.06
2019-03-10T03:49:29.438Z,4.02
2019-03-10T03:50:29.426Z,4.06
2019-03-10T03:51:29.439Z,4.05
2019-03-10T03:52:29.407Z,4.06
2019-03-10T03:53:29.389Z,4.00
2019-03-10T03:54:29.380Z,4.05
2019-03-10T03:55:29.357Z,4.02
2019-03-10T03:56:29.381Z,4.06
2019-03-10T03:57:29.359Z,3.98
2019-03-10T03:58:29.359Z,4.05
2019-03-10T03:59:29.334Z,4.06
2019-03-10T04:00:29.308Z,4.05
2019-03-10T04:01:29.312Z,4.06
2019-03-10T04:02:29.282Z,4.09
2019-03-10T04:03:29.282Z,4.09
2019-03-10T04:04:29.300Z,4.08
2019-03-10T04:05:29.257Z,4.09
2019-03-10T04:06:29.257Z,4.09
2019-03-10T04:07:29.225Z,4.04
2019-03-10T04:08:29.218Z,4.12
2019-03-10T04:09:29.218Z,4.04
2019-03-10T04:10:29.211Z,4.11
2019-03-10T04:11:29.227Z,4.18
2019-03-10T04:12:29.171Z,4.12
2019-03-10T04:13:29.163Z,4.11
2019-03-10T04:14:29.160Z,4.14
2019-03-10T04:15:29.161Z,4.16
2019-03-10T04:16:29.190Z,4.16
2019-03-10T04:17:29.114Z,4.11
2019-03-10T04:18:29.118Z,4.04
2019-03-10T04:19:29.091Z,4.09
2019-03-10T04:20:29.083Z,4.12
2019-03-10T04:21:29.099Z,4.09
2019-03-10T04:22:29.054Z,4.14
2019-03-10T04:23:29.044Z,4.08
2019-03-10T04:24:29.038Z,4.18
2019-03-10T04:25:29.027Z,4.16
2019-03-10T04:26:29.046Z,4.16
2019-03-10T04:27:29.007Z,4.18
2019-03-10T04:28:28.995Z,4.18
2019-03-10T04:29:28.983Z,4.14
2019-03-10T04:30:28.971Z,4.22
2019-03-10T04:31:29.067Z,4.18
2019-03-10T04:32:28.959Z,4.14
2019-03-10T04:33:28.935Z,4.20
2019-03-10T04:34:28.922Z,4.18
2019-03-10T04:35:28.923Z,4.12
2019-03-10T04:36:28.931Z,4.16
2019-03-10T04:37:28.967Z,4.22
2019-03-10T04:38:28.875Z,4.16
2019-03-10T04:39:28.886Z,4.18
2019-03-10T04:40:28.855Z,4.20
2019-03-10T04:41:28.860Z,4.16
2019-03-10T04:42:28.835Z,4.22
2019-03-10T04:43:28.829Z,4.29
2019-03-10T04:44:28.817Z,4.22
2019-03-10T04:45:28.797Z,4.24
2019-03-10T04:46:28.811Z,4.30
2019-03-10T04:47:28.779Z,4.29
2019-03-10T04:48:28.783Z,4.27
2019-03-10T04:49:28.757Z,4.33
2019-03-10T04:50:28.749Z,4.33
2019-03-10T04:51:28.753Z,4.36
2019-03-10T04:52:28.721Z,4.26
2019-03-10T04:53:28.716Z,4.27
2019-03-10T04:54:28.705Z,4.26
2019-03-10T04:55:28.694Z,4.30
2019-03-10T04:56:28.691Z,4.26
2019-03-10T04:57:28.664Z,4.33
2019-03-10T04:58:28.650Z,4.33
2019-03-10T04:59:28.653Z,4.34
2019-03-10T05:00:28.634Z,4.40
2019-03-10T05:01:28.650Z,4.37
2019-03-10T05:02:28.620Z,4.36
2019-03-10T05:03:28.609Z,4.37
2019-03-10T05:04:28.598Z,4.40
2019-03-10T05:05:28.596Z,4.45
2019-03-10T05:06:28.588Z,4.40
2019-03-10T05:07:28.564Z,4.44
2019-03-10T05:08:28.537Z,4.36
2019-03-10T05:09:28.535Z,4.45
2019-03-10T05:10:28.522Z,4.42
2019-03-10T05:11:28.533Z,4.47
2019-03-10T05:12:28.501Z,4.45
2019-03-10T05:13:28.508Z,4.42
2019-03-10T05:14:28.477Z,4.44
2019-03-10T05:15:28.474Z,4.47
2019-03-10T05:16:28.474Z,4.50
2019-03-10T05:17:28.448Z,4.51
2019-03-10T05:18:28.437Z,4.54
2019-03-10T05:19:28.422Z,4.54
2019-03-10T05:20:28.411Z,4.51
2019-03-10T05:21:28.421Z,4.54
2019-03-10T05:22:28.401Z,4.54
2019-03-10T05:23:28.396Z,4.63
2019-03-10T05:24:28.515Z,4.54
2019-03-10T05:25:28.353Z,4.52
2019-03-10T05:26:28.343Z,4.54
2019-03-10T05:27:28.361Z,4.52
2019-03-10T05:28:28.328Z,4.55
2019-03-10T05:29:28.327Z,4.62
2019-03-10T05:30:28.312Z,4.63
2019-03-10T05:31:28.289Z,4.65
2019-03-10T05:32:28.298Z,4.63
2019-03-10T05:33:28.271Z,4.66
2019-03-10T05:34:28.267Z,4.66
2019-03-10T05:35:28.248Z,4.63
2019-03-10T05:36:28.230Z,4.62
2019-03-10T05:37:28.251Z,4.66
2019-03-10T05:38:28.223Z,4.60
2019-03-10T05:39:28.199Z,4.62
2019-03-10T05:40:28.194Z,4.60
2019-03-10T05:41:28.184Z,4.62
2019-03-10T05:42:28.194Z,4.67
2019-03-10T05:43:28.150Z,4.70
2019-03-10T05:44:28.138Z,4.65
2019-03-10T05:45:28.137Z,4.70
2019-03-10T05:46:28.119Z,4.63
2019-03-10T05:47:28.143Z,4.73
2019-03-10T05:48:28.096Z,4.59
2019-03-10T05:49:28.093Z,4.60
2019-03-10T05:50:28.077Z,4.69
2019-03-10T05:51:28.065Z,4.60
2019-03-10T05:52:28.070Z,4.59
2019-03-10T05:53:28.058Z,4.67
2019-03-10T05:54:28.035Z,4.66
2019-03-10T05:55:28.024Z,4.66
2019-03-10T05:56:28.017Z,4.66
2019-03-10T05:57:28.034Z,4.66
2019-03-10T05:58:27.986Z,4.62
2019-03-10T05:59:27.975Z,4.62
2019-03-10T06:00:27.987Z,4.62
2019-03-10T06:01:27.949Z,4.62
2019-03-10T06:02:27.971Z,4.67
2019-03-10T06:03:27.947Z,4.62
2019-03-10T06:04:27.928Z,4.63
2019-03-10T06:05:27.903Z,4.63
2019-03-10T06:06:27.913Z,4.67
2019-03-10T06:07:27.879Z,4.62
2019-03-10T06:08:27.896Z,4.62
2019-03-10T06:09:27.859Z,4.60
2019-03-10T06:10:27.851Z,4.65
2019-03-10T06:11:27.840Z,4.73
2019-03-10T06:12:27.832Z,4.65
2019-03-10T06:13:27.840Z,4.70
2019-03-10T06:14:27.807Z,4.77
2019-03-10T06:15:27.799Z,4.63
2019-03-10T06:16:27.781Z,4.66
2019-03-10T06:17:27.775Z,4.58
2019-03-10T06:18:27.787Z,4.66
2019-03-10T06:19:27.755Z,4.62
2019-03-10T06:20:27.753Z,4.51
2019-03-10T06:21:27.745Z,4.65
2019-03-10T06:22:27.717Z,4.58
2019-03-10T06:23:27.725Z,4.47
2019-03-10T06:24:27.693Z,4.55
2019-03-10T06:25:27.695Z,4.50
2019-03-10T06:26:27.687Z,4.58
2019-03-10T06:27:27.661Z,4.54
2019-03-10T06:28:27.666Z,4.58
2019-03-10T06:29:27.644Z,4.58
2019-03-10T06:30:27.627Z,4.55
2019-03-10T06:31:27.628Z,4.48
2019-03-10T06:32:27.610Z,4.59
2019-03-10T06:33:27.628Z,4.58
2019-03-10T06:34:27.591Z,4.54
2019-03-10T06:35:27.583Z,4.50
2019-03-10T06:36:27.565Z,4.62
2019-03-10T06:37:27.553Z,4.66
2019-03-10T06:38:27.563Z,4.70
2019-03-10T06:39:27.523Z,4.69
2019-03-10T06:40:32.133Z,4.73
2019-03-10T06:41:28.521Z,4.82
2019-03-10T06:42:27.502Z,4.96
2019-03-10T06:43:27.527Z,5.03
2019-03-10T06:44:27.467Z,5.09
2019-03-10T06:45:27.463Z,5.10
2019-03-10T06:46:27.448Z,5.20
2019-03-10T06:47:27.438Z,5.27
2019-03-10T06:48:27.453Z,5.27
2019-03-10T06:49:27.414Z,5.31
2019-03-10T06:50:27.406Z,5.38
2019-03-10T06:51:27.403Z,5.42
2019-03-10T06:52:27.395Z,5.45
2019-03-10T06:53:27.405Z,5.48
2019-03-10T06:54:27.389Z,5.45
2019-03-10T06:55:27.350Z,5.58
2019-03-10T06:56:27.335Z,5.60
2019-03-10T06:57:27.330Z,5.58
2019-03-10T06:58:27.316Z,5.68
2019-03-10T06:59:27.325Z,5.63
2019-03-10T07:00:27.316Z,5.64
2019-03-10T07:01:27.290Z,5.74
2019-03-10T07:02:27.272Z,5.74
2019-03-10T07:03:27.270Z,5.85
2019-03-10T07:04:27.288Z,5.76
2019-03-10T07:05:27.239Z,5.82
2019-03-10T07:06:27.227Z,5.81
2019-03-10T07:07:27.211Z,5.85
2019-03-10T07:08:27.205Z,5.85
2019-03-10T07:09:27.213Z,5.96
2019-03-10T07:10:27.194Z,5.90
2019-03-10T07:11:27.173Z,5.90
2019-03-10T07:12:27.169Z,5.94
2019-03-10T07:13:27.174Z,6.01
2019-03-10T07:14:27.157Z,6.06
2019-03-10T07:15:27.136Z,6.06
2019-03-10T07:16:27.126Z,6.04
2019-03-10T07:17:27.111Z,6.14
2019-03-10T07:18:27.106Z,6.15
2019-03-10T07:19:27.106Z,6.17
2019-03-10T07:20:27.074Z,6.18
2019-03-10T07:21:27.095Z,6.12
2019-03-10T07:22:27.054Z,6.15
2019-03-10T07:23:27.110Z,6.31
2019-03-10T07:24:27.092Z,6.27
2019-03-10T07:25:27.051Z,6.34
2019-03-10T07:26:27.004Z,6.30
2019-03-10T07:27:26.993Z,6.25
2019-03-10T07:28:26.983Z,6.41
2019-03-10T07:29:27.011Z,6.41
2019-03-10T07:30:26.956Z,6.36
2019-03-10T07:31:27.032Z,6.36
2019-03-10T07:32:26.941Z,6.27
2019-03-10T07:33:26.937Z,6.31
2019-03-10T07:34:27.089Z,6.31
2019-03-10T07:35:26.905Z,6.40
2019-03-10T07:36:26.892Z,6.38
2019-03-10T07:37:26.931Z,6.38
2019-03-10T07:38:26.867Z,6.40
2019-03-10T07:39:26.885Z,6.51
2019-03-10T07:40:26.876Z,6.49
2019-03-10T07:41:26.835Z,6.52
2019-03-10T07:42:26.825Z,6.56
2019-03-10T07:43:26.823Z,6.62
2019-03-10T07:44:26.808Z,6.49
2019-03-10T07:45:26.811Z,6.56
2019-03-10T07:46:26.851Z,6.55
2019-03-10T07:47:26.839Z,6.59
2019-03-10T07:48:26.761Z,6.62
2019-03-10T07:49:26.752Z,6.67
2019-03-10T07:50:26.762Z,6.62
2019-03-10T07:51:26.747Z,6.69
2019-03-10T07:52:26.717Z,6.71
2019-03-10T07:53:26.698Z,6.70
2019-03-10T07:54:26.689Z,6.79
2019-03-10T07:55:26.697Z,6.74
2019-03-10T07:56:26.695Z,6.77
2019-03-10T07:57:26.670Z,6.84
2019-03-10T07:58:26.653Z,6.79
2019-03-10T07:59:26.633Z,6.85
2019-03-10T08:00:26.640Z,6.81
2019-03-10T08:01:26.615Z,6.71
2019-03-10T08:02:26.609Z,6.77
2019-03-10T08:03:26.977Z,6.79
2019-03-10T08:04:26.598Z,6.81
2019-03-10T08:05:26.586Z,6.91
2019-03-10T08:06:26.567Z,6.84
2019-03-10T08:07:26.562Z,6.94
2019-03-10T08:08:26.537Z,6.91
2019-03-10T08:09:26.525Z,6.99
2019-03-10T08:10:26.531Z,7.02
2019-03-10T08:11:26.497Z,7.06
2019-03-10T08:12:26.493Z,7.20
2019-03-10T08:13:26.489Z,7.23
2019-03-10T08:14:26.474Z,7.31
2019-03-10T08:15:26.466Z,7.42
2019-03-10T08:16:26.449Z,7.39
2019-03-10T08:17:26.438Z,7.46
2019-03-10T08:18:26.443Z,7.60
2019-03-10T08:19:26.414Z,7.67
2019-03-10T08:20:26.421Z,7.74
2019-03-10T08:21:26.403Z,7.67
2019-03-10T08:22:26.390Z,7.67
2019-03-10T08:23:26.389Z,7.58
2019-03-10T08:24:26.368Z,7.63
2019-03-10T08:25:26.350Z,7.48
2019-03-10T08:26:26.379Z,7.39
2019-03-10T08:27:26.322Z,7.37
2019-03-10T08:28:26.307Z,7.42
2019-03-10T08:29:26.317Z,7.43
2019-03-10T08:30:26.300Z,7.46
2019-03-10T08:31:26.304Z,7.40
2019-03-10T08:32:26.263Z,7.42
2019-03-10T08:33:26.255Z,7.45
2019-03-10T08:34:26.248Z,7.45
2019-03-10T08:35:26.246Z,7.43
2019-03-10T08:36:26.241Z,7.46
2019-03-10T08:37:26.205Z,7.45
2019-03-10T08:38:26.301Z,7.77
2019-03-10T08:39:26.199Z,7.97
2019-03-10T08:40:26.186Z,8.15
2019-03-10T08:41:26.273Z,8.00
2019-03-10T08:42:26.154Z,7.87
2019-03-10T08:43:26.145Z,7.89
2019-03-10T08:44:26.129Z,7.92
2019-03-10T08:45:26.122Z,8.10
2019-03-10T08:46:26.142Z,8.12
2019-03-10T08:47:26.091Z,8.05
2019-03-10T08:48:26.081Z,8.11
2019-03-10T08:49:26.089Z,8.10
2019-03-10T08:50:26.070Z,7.92
2019-03-10T08:51:26.066Z,7.90
2019-03-10T08:52:26.039Z,7.92
2019-03-10T08:53:26.033Z,7.93
2019-03-10T08:54:26.021Z,7.95
2019-03-10T08:55:26.003Z,8.00
2019-03-10T08:56:26.008Z,7.97
2019-03-10T08:57:25.993Z,8.01
2019-03-10T08:58:25.990Z,8.11
2019-03-10T08:59:25.971Z,8.18
2019-03-10T09:00:25.961Z,8.29
2019-03-10T09:01:25.998Z,8.29
2019-03-10T09:02:25.921Z,8.25
2019-03-10T09:03:25.918Z,8.29
2019-03-10T09:04:25.913Z,8.30
2019-03-10T09:05:25.899Z,8.41
2019-03-10T09:06:25.915Z,8.52
2019-03-10T09:07:25.931Z,8.55
2019-03-10T09:08:25.882Z,8.53
2019-03-10T09:09:25.852Z,8.56
2019-03-10T09:10:25.838Z,8.45
2019-03-10T09:11:25.854Z,8.48
2019-03-10T09:12:25.819Z,8.40
2019-03-10T09:13:25.826Z,8.25
2019-03-10T09:14:25.786Z,8.30
2019-03-10T09:15:25.790Z,8.29
2019-03-10T09:16:25.778Z,8.18
2019-03-10T09:17:25.789Z,8.25
2019-03-10T09:18:25.743Z,8.34
2019-03-10T09:19:25.750Z,8.41
2019-03-10T09:20:25.726Z,8.44
2019-03-10T09:21:25.725Z,8.48
2019-03-10T09:22:25.768Z,8.44
2019-03-10T09:23:25.720Z,8.53
2019-03-10T09:24:25.694Z,8.53
2019-03-10T09:25:25.679Z,8.70
2019-03-10T09:26:25.665Z,8.70
2019-03-10T09:27:28.279Z,8.81
2019-03-10T09:28:25.655Z,8.70
2019-03-10T09:29:25.646Z,8.73
2019-03-10T09:30:25.614Z,8.71
2019-03-10T09:31:25.598Z,8.63
2019-03-10T09:32:25.609Z,8.68
2019-03-10T09:33:25.582Z,8.62
2019-03-10T09:34:25.575Z,8.76
2019-03-10T09:35:25.554Z,8.76
2019-03-10T09:36:25.555Z,8.71
2019-03-10T09:37:25.565Z,8.70
2019-03-10T09:38:25.535Z,8.70
2019-03-10T09:39:25.516Z,8.70
2019-03-10T09:40:25.494Z,8.80
2019-03-10T09:41:25.495Z,8.73
2019-03-10T09:42:25.510Z,8.66
2019-03-10T09:43:25.474Z,8.74
2019-03-10T09:44:25.477Z,8.63
2019-03-10T09:45:25.437Z,8.73
2019-03-10T09:46:25.426Z,8.66
2019-03-10T09:47:25.440Z,8.66
2019-03-10T09:48:25.406Z,8.77
2019-03-10T09:49:25.400Z,8.62
2019-03-10T09:50:25.390Z,8.68
2019-03-10T09:51:25.379Z,8.63
2019-03-10T09:52:25.402Z,8.61
2019-03-10T09:53:25.351Z,8.55
2019-03-10T09:54:25.349Z,8.61
2019-03-10T09:55:25.345Z,8.59
2019-03-10T09:56:25.314Z,8.65
2019-03-10T09:57:25.337Z,8.68
2019-03-10T09:58:25.298Z,8.77
2019-03-10T09:59:25.293Z,8.87
2019-03-10T10:00:25.387Z,9.10
2019-03-10T10:01:25.264Z,9.10
2019-03-10T10:02:25.273Z,8.98
2019-03-10T10:03:25.241Z,8.99
2019-03-10T10:04:25.221Z,8.83
2019-03-10T10:05:25.233Z,8.89
2019-03-10T10:06:25.225Z,8.83
2019-03-10T10:07:25.197Z,8.79
2019-03-10T10:08:25.222Z,8.77
2019-03-10T10:09:25.170Z,8.74
2019-03-10T10:10:25.188Z,8.80
2019-03-10T10:11:25.155Z,8.83
2019-03-10T10:12:25.142Z,8.79
2019-03-10T10:13:25.152Z,8.79
2019-03-10T10:14:25.112Z,8.77
2019-03-10T10:15:25.107Z,8.76
2019-03-10T10:16:25.087Z,8.70
2019-03-10T10:17:25.096Z,8.74
2019-03-10T10:18:25.095Z,8.80
2019-03-10T10:19:25.066Z,8.80
2019-03-10T10:20:26.831Z,8.96
2019-03-10T10:21:25.033Z,9.01
2019-03-10T10:22:25.022Z,9.04
2019-03-10T10:23:25.050Z,8.99
2019-03-10T10:24:25.014Z,8.95
2019-03-10T10:25:25.001Z,8.84
2019-03-10T10:26:24.986Z,8.96
2019-03-10T10:27:24.968Z,8.79
2019-03-10T10:28:25.001Z,8.76
2019-03-10T10:29:24.945Z,8.71
2019-03-10T10:30:24.973Z,8.79
2019-03-10T10:31:24.941Z,8.70
2019-03-10T10:32:24.931Z,8.76
2019-03-10T10:33:24.931Z,8.73
2019-03-10T10:34:24.928Z,8.81
2019-03-10T10:35:24.898Z,8.80
2019-03-10T10:36:24.875Z,8.73
2019-03-10T10:37:24.880Z,8.74
2019-03-10T10:38:24.870Z,8.77
2019-03-10T10:39:24.845Z,8.84
2019-03-10T10:40:24.825Z,8.83
2019-03-10T10:41:24.815Z,8.86
2019-03-10T10:42:24.832Z,8.79
2019-03-10T10:43:24.918Z,8.81
2019-03-10T10:44:24.787Z,8.81
2019-03-10T10:45:24.776Z,8.83
2019-03-10T10:46:24.773Z,8.84
2019-03-10T10:47:24.761Z,8.87
2019-03-10T10:48:24.779Z,8.96
2019-03-10T10:49:24.730Z,8.99
2019-03-10T10:50:24.718Z,8.84
2019-03-10T10:51:24.717Z,8.84
2019-03-10T10:52:24.723Z,8.87
2019-03-10T10:53:24.704Z,8.92
2019-03-10T10:54:24.683Z,8.96
2019-03-10T10:55:24.652Z,8.98
2019-03-10T10:56:24.652Z,8.95
2019-03-10T10:57:24.640Z,8.99
2019-03-10T10:58:24.659Z,8.96
2019-03-10T10:59:24.606Z,8.96
2019-03-10T11:00:24.608Z,9.04
2019-03-10T11:01:24.590Z,8.98
2019-03-10T11:02:24.578Z,8.96
2019-03-10T11:03:24.612Z,9.10
2019-03-10T11:04:24.576Z,9.05
2019-03-10T11:05:24.539Z,9.04
2019-03-10T11:06:24.539Z,9.05
2019-03-10T11:07:24.512Z,8.96
2019-03-10T11:08:24.533Z,8.96
2019-03-10T11:09:24.502Z,8.91
2019-03-10T11:10:24.493Z,8.74
2019-03-10T11:11:24.466Z,8.74
2019-03-10T11:12:24.459Z,8.66
2019-03-10T11:13:24.475Z,8.71
2019-03-10T11:14:24.466Z,8.70
2019-03-10T11:15:24.418Z,8.71
2019-03-10T11:16:24.411Z,8.58
2019-03-10T11:17:24.404Z,8.56
2019-03-10T11:18:24.425Z,8.65
2019-03-10T11:19:24.390Z,8.70
2019-03-10T11:20:24.399Z,8.65
2019-03-10T11:21:24.358Z,8.62
2019-03-10T11:22:24.643Z,8.71
2019-03-10T11:23:24.376Z,8.77
2019-03-10T11:24:24.329Z,8.66
2019-03-10T11:25:24.323Z,8.81
2019-03-10T11:26:24.303Z,8.94
2019-03-10T11:27:24.286Z,8.94
2019-03-10T11:28:24.344Z,8.98
2019-03-10T11:29:24.264Z,9.04
2019-03-10T11:30:24.263Z,9.11
2019-03-10T11:31:24.248Z,9.10
2019-03-10T11:32:24.254Z,8.96
2019-03-10T11:33:24.263Z,8.91
2019-03-10T11:34:24.215Z,8.89
2019-03-10T11:35:24.265Z,8.96
2019-03-10T11:36:24.209Z,8.91
2019-03-10T11:37:24.179Z,8.79
2019-03-10T11:38:24.192Z,8.80
2019-03-10T11:39:24.152Z,8.74
2019-03-10T11:40:24.147Z,8.77
2019-03-10T11:41:33.215Z,8.70
2019-03-10T11:42:25.119Z,8.63
2019-03-10T11:43:24.151Z,8.50
2019-03-10T11:44:24.105Z,8.50
2019-03-10T11:45:24.088Z,8.47
2019-03-10T11:46:24.073Z,8.45
2019-03-10T11:47:24.066Z,8.40
2019-03-10T11:48:24.062Z,8.33
2019-03-10T11:49:24.061Z,8.22
2019-03-10T11:50:24.026Z,8.30
2019-03-10T11:51:24.028Z,8.29
2019-03-10T11:52:24.012Z,8.29
2019-03-10T11:53:25.747Z,8.30
2019-03-10T11:54:24.015Z,8.30
2019-03-10T11:55:24.042Z,8.19
2019-03-10T11:56:23.959Z,8.20
2019-03-10T11:57:23.951Z,8.16
2019-03-10T11:58:23.945Z,8.15
2019-03-10T11:59:23.988Z,8.23
2019-03-10T12:00:23.953Z,8.22
2019-03-10T12:01:23.918Z,8.11
2019-03-10T12:02:23.904Z,8.08
2019-03-10T12:03:23.886Z,8.11
2019-03-10T12:04:23.881Z,7.97
2019-03-10T12:05:23.890Z,7.93
2019-03-10T12:06:23.846Z,7.89
2019-03-10T12:07:23.830Z,7.86
2019-03-10T12:08:23.839Z,7.82
2019-03-10T12:09:23.844Z,7.69
2019-03-10T12:10:23.835Z,7.61
2019-03-10T12:11:23.797Z,7.61
2019-03-10T12:12:23.784Z,7.60
2019-03-10T12:13:23.788Z,7.49
2019-03-10T12:14:23.758Z,7.50
2019-03-10T12:15:23.783Z,7.67
2019-03-10T12:16:23.751Z,7.42
2019-03-10T12:17:23.759Z,7.43
2019-03-10T12:18:23.718Z,7.31
2019-03-10T12:19:23.707Z,7.45
2019-03-10T12:20:23.767Z,7.32
2019-03-10T12:21:23.686Z,7.31
2019-03-10T12:22:23.694Z,7.39
2019-03-10T12:23:23.680Z,7.34
2019-03-10T12:24:23.660Z,7.42
2019-03-10T12:25:23.665Z,7.34
2019-03-10T12:26:23.679Z,7.32
2019-03-10T12:27:23.630Z,7.28
2019-03-10T12:28:23.630Z,7.28
2019-03-10T12:29:23.604Z,7.34
2019-03-10T12:30:23.578Z,7.40
2019-03-10T12:31:23.592Z,7.32
2019-03-10T12:32:23.556Z,7.39
2019-03-10T12:33:23.559Z,7.49
2019-03-10T12:34:23.546Z,7.53
2019-03-10T12:35:33.629Z,7.35
2019-03-10T12:36:24.530Z,7.45
2019-03-10T12:37:23.497Z,7.52
2019-03-10T12:38:23.501Z,7.52
2019-03-10T12:39:23.484Z,7.60
2019-03-10T12:40:23.468Z,7.64
2019-03-10T12:41:23.492Z,7.67
2019-03-10T12:42:23.447Z,7.71
2019-03-10T12:43:23.435Z,7.64
2019-03-10T12:44:23.424Z,7.74
2019-03-10T12:45:23.413Z,7.82
2019-03-10T12:46:23.416Z,7.89
2019-03-10T12:47:23.393Z,8.07
2019-03-10T12:48:23.375Z,7.98
2019-03-10T12:49:23.431Z,8.07
2019-03-10T12:50:23.359Z,8.11
2019-03-10T12:51:23.395Z,8.02
2019-03-10T12:52:23.371Z,8.04
2019-03-10T12:53:23.323Z,8.11
2019-03-10T12:54:23.332Z,8.05
2019-03-10T12:55:23.302Z,8.10
2019-03-10T12:56:23.285Z,8.11
2019-03-10T12:57:23.295Z,8.11
2019-03-10T12:58:23.265Z,8.12
2019-03-10T12:59:23.253Z,8.07
2019-03-10T13:00:23.241Z,7.98
2019-03-10T13:01:23.241Z,7.90
2019-03-10T13:02:23.248Z,7.85
2019-03-10T13:03:23.255Z,7.86
2019-03-10T13:04:23.204Z,7.85
2019-03-10T13:05:23.184Z,7.92
2019-03-10T13:06:23.184Z,7.98
2019-03-10T13:07:23.190Z,8.00
2019-03-10T13:08:23.167Z,8.04
2019-03-10T13:09:23.159Z,8.00
2019-03-10T13:10:23.128Z,7.90
2019-03-10T13:11:23.113Z,7.93
2019-03-10T13:12:23.128Z,7.98
2019-03-10T13:13:23.116Z,7.90
2019-03-10T13:14:23.082Z,7.80
2019-03-10T13:15:23.079Z,7.83
2019-03-10T13:16:23.060Z,7.87
2019-03-10T13:17:23.103Z,7.93
2019-03-10T13:18:23.060Z,7.98